Chhatrapati Shivaji International Airport
VABB : now visible

Airfield :











YOU CAN JOIN US ON...

 
LOGIN :

Register | Disclaimer

   EN    FR    IT 

 









Legend :    VFR   Marginal VFR   IFR   Intensive IFR   Very Intensive IFR
Visi :
Ceiling :
>= 8 km
>= 3000ft
5 to 8 km
1000 to 3000 ft
1500m to 5 km
500 to 1000 ft
800 to 1500m
200 to 500 ft
< 800m
< 200 ft
Symbols :   Thunderstorms  Fog  Heavy snow  Heavy precipitations  Wind > 20 kt







- Airport Elevation : 37 ft
- IATA code : BOM


VABB - Chhatrapati Shivaji International

CURRENT METAR :
  • 241130Z 19004KT 3500 HZ FEW018 FEW025TCU BKN100 30/25 Q1003 BECMG 4000 HZ

EXPIRED METARs :
  • 241100Z 14003KT 3500 HZ SCT018 FEW025TCU BKN090 30/25 Q1003 NOSIG
  • 241030Z 21004KT 3500 HZ SCT018 FEW025TCU BKN090 30/26 Q1003 NOSIG
  • 241000Z 22005KT 3000 HZ SCT018 SCT025 FEW030CB BKN090 29/25 Q1003 NOSIG
  • 240930Z 24006KT 3000 -DZ SCT018 SCT025 FEW030CB BKN090 29/26 Q1004 NOSIG
  • 240900Z 23006KT 3000 VCSH SCT018 SCT025 FEW030CB BKN090 28/25 Q1004 NOSIG

TAF TAF VABB
Valid from the 24 at 12:00 until the 25 at 18:00 UTC


241100Z 2412/2518 24010KT 3000 HZ SCT018 SCT025 BKN100
TEMPO 2412/2421 1500 SHRA RA SCT012 FEW030CB OVC080
BECMG 2422/2424 19006KT
TEMPO 2500/2503 1500 SHRA SCT012 FEW030CB BKN080
BECMG 2506/2508 25010KT
TEMPO 2512/2518 2000 -SHRA SCT015 FEW025TCU BKN090
VABF FIR / Asia



MET'MAP, your aeronautical weather chart ! - Copyright ORBIFLY December 2007 - Disclaimer

ORBIFLY MET'MAP TEAM :

Programming & Development : Alexandra Zaïnal
Concept & Development : Baudouin d'Aumeries
Co-Development & Prog : Marc-Olivier Méhu
Technical & hardware support : Manuel Goepfert

Contact : metmap@orbifly.com




SOURCES & CREDITS :

   NOAA       Earth
Advisory